Address 0x1bdfb4a38a38ab3dc2fb2b3d40621d405f79a024 2

Txn Hash Method
Block
From
To
Value [Txn Fee]
0x3218ce530a7f6e643f05bda41519b198705664383997caec338e4bdaf1f425440x95938db919752012022-09-30 2:51:061 hr 27 mins ago0x1bdfb4a38a38ab3dc2fb2b3d40621d405f79a024OUT 0xf179893eb4fbd519178b4c514f3dc141b857ff870 GLMR0.04586505
0x3f64c1ba54d23d81eced4a696ac573492eb5e302b63327cbd2e65acb48f1fd600x95938db919750202022-09-30 2:14:002 hrs 4 mins ago0x1bdfb4a38a38ab3dc2fb2b3d40621d405f79a024OUT 0xf179893eb4fbd519178b4c514f3dc141b857ff870 GLMR0.037583075166
0xf08c83c3bd6b4b9ea2992d41decef40c19065e19202b21e51f399a7b3b6fd8b80x95938db919747652022-09-30 1:22:242 hrs 56 mins ago0x1bdfb4a38a38ab3dc2fb2b3d40621d405f79a024OUT 0xf179893eb4fbd519178b4c514f3dc141b857ff870 GLMR0.007845341
0x200477e3a9e4a7d22f0d16b5efd4666f200321ee7daf03f285ee5c8c55aa4ef50x95938db919744092022-09-30 0:10:004 hrs 8 mins ago0x1bdfb4a38a38ab3dc2fb2b3d40621d405f79a024OUT 0xf179893eb4fbd519178b4c514f3dc141b857ff870 GLMR0.008998178
0xc2063343011af8bc2cea49875a667207cc9de6751974811182668b8e0301944c0x95938db919743702022-09-30 0:01:544 hrs 16 mins ago0x1bdfb4a38a38ab3dc2fb2b3d40621d405f79a024OUT 0xf179893eb4fbd519178b4c514f3dc141b857ff870 GLMR0.009294761
0x7618afbb3240db2e08ecb9d65e6fc0a2cb5217d554921bb89bcfb79903cf40f60x95938db919743272022-09-29 23:53:064 hrs 25 mins ago0x1bdfb4a38a38ab3dc2fb2b3d40621d405f79a024OUT 0xf179893eb4fbd519178b4c514f3dc141b857ff870 GLMR0.009294761
0x5bc3aa090641f27d83a419d90d34c70f927c62b91191e71c0680ece80f4624e10x95938db919742752022-09-29 23:42:304 hrs 36 mins ago0x1bdfb4a38a38ab3dc2fb2b3d40621d405f79a024OUT 0xf179893eb4fbd519178b4c514f3dc141b857ff870 GLMR0.007729
0x1404676f64a5ad78a6c770812b5719ae41956e160e2ce7a521559967d40501550x95938db919740162022-09-29 22:48:005 hrs 30 mins ago0x1bdfb4a38a38ab3dc2fb2b3d40621d405f79a024OUT 0xf179893eb4fbd519178b4c514f3dc141b857ff870 GLMR0.006096293
0xd72247ae52cd230aec79c916a06537d6afb00b8350e39cc6f1e7fddda4237da50x95938db919740082022-09-29 22:46:125 hrs 32 mins ago0x1bdfb4a38a38ab3dc2fb2b3d40621d405f79a024OUT 0xf179893eb4fbd519178b4c514f3dc141b857ff870 GLMR0.0062655
0x770e635dadd97a7abce19942a8d383e8bf51db35cc69afdbd5987941831325540x95938db919740032022-09-29 22:45:125 hrs 33 mins ago0x1bdfb4a38a38ab3dc2fb2b3d40621d405f79a024OUT 0xf179893eb4fbd519178b4c514f3dc141b857ff870 GLMR0.0062655
0xecd999b2861c3eb74f413f7c108e9a7306918ecb497feed8dc4342adcca558f30x95938db919739812022-09-29 22:40:485 hrs 37 mins ago0x1bdfb4a38a38ab3dc2fb2b3d40621d405f79a024OUT 0xf179893eb4fbd519178b4c514f3dc141b857ff870 GLMR0.0094473155
0xa19b3396e401d927facfe77c82c03c3a5e365042f178ae9192cea97458593ad40x95938db919738122022-09-29 22:05:486 hrs 12 mins ago0x1bdfb4a38a38ab3dc2fb2b3d40621d405f79a024OUT 0xf179893eb4fbd519178b4c514f3dc141b857ff870 GLMR0.0094473155
0xcdb93fe577ecf3152e95d2ab9bc058a4442348d9433cb9ec8ce21aff676922460x95938db919736582022-09-29 21:34:186 hrs 44 mins ago0x1bdfb4a38a38ab3dc2fb2b3d40621d405f79a024OUT 0xf179893eb4fbd519178b4c514f3dc141b857ff870 GLMR0.0066727115
0x6d59430298e2eb47ccc43525440fbbf6fbefc8939f1b5a13cb11af67be93243e0x95938db919736512022-09-29 21:32:246 hrs 46 mins ago0x1bdfb4a38a38ab3dc2fb2b3d40621d405f79a024OUT 0xf179893eb4fbd519178b4c514f3dc141b857ff870 GLMR0.0059333855
0xd673711d3183ad586bba42119d897dcad0004f5de7283e7e783184e7677756cd0x95938db919735332022-09-29 21:08:367 hrs 10 mins ago0x1bdfb4a38a38ab3dc2fb2b3d40621d405f79a024OUT 0xf179893eb4fbd519178b4c514f3dc141b857ff870 GLMR0.010479266
0x528a2a69a288693dec64c5701b43dabdb96f8c6add05f48a00cbbc635a13987e0x95938db919734772022-09-29 20:57:187 hrs 21 mins ago0x1bdfb4a38a38ab3dc2fb2b3d40621d405f79a024OUT 0xf179893eb4fbd519178b4c514f3dc141b857ff870 GLMR0.0062655
0x4bfbe89376da764e84a013c113df940eb10216cdfe9e75121c3222d8ae3067aa0x95938db919734542022-09-29 20:51:427 hrs 27 mins ago0x1bdfb4a38a38ab3dc2fb2b3d40621d405f79a024OUT 0xf179893eb4fbd519178b4c514f3dc141b857ff870 GLMR0.0065285815
0x233fbacd50189fc0c265f22bbf27fe7b8a9c7d9a6f3e25163de1639260052f210x95938db919734462022-09-29 20:49:547 hrs 28 mins ago0x1bdfb4a38a38ab3dc2fb2b3d40621d405f79a024OUT 0xf179893eb4fbd519178b4c514f3dc141b857ff870 GLMR0.0059562
0x79e4a3a955123fe485de469931f4e3ede87abe99ecebf2aef83baa594f89ec600x95938db919734082022-09-29 20:42:187 hrs 36 mins ago0x1bdfb4a38a38ab3dc2fb2b3d40621d405f79a024OUT 0xf179893eb4fbd519178b4c514f3dc141b857ff870 GLMR0.022185261
0xb775be4663b1d4b227e796116162f4e3ac9e502c7cc1f742fb17a83e7c92f6d80x95938db919734052022-09-29 20:41:427 hrs 37 mins ago0x1bdfb4a38a38ab3dc2fb2b3d40621d405f79a024OUT 0xf179893eb4fbd519178b4c514f3dc141b857ff870 GLMR0.028052256
0xf25aacfdf018aee2e056e4dddca4376522f855c56cac181d71308198ad416f780x95938db919733672022-09-29 20:33:547 hrs 44 mins ago0x1bdfb4a38a38ab3dc2fb2b3d40621d405f79a024OUT 0xf179893eb4fbd519178b4c514f3dc141b857ff870 GLMR0.005982613
0x33514629f13e3e1b87835fb1ba6a1a4d88c9e1e3e12885d7e81fa0aa0e44e0840x95938db919732802022-09-29 20:16:008 hrs 2 mins ago0x1bdfb4a38a38ab3dc2fb2b3d40621d405f79a024OUT 0xf179893eb4fbd519178b4c514f3dc141b857ff870 GLMR0.0062655
0xd13211222f8cd62d135375b2ec56c780401647ce831de081dd4f110c0debc8430x95938db919732572022-09-29 20:11:068 hrs 7 mins ago0x1bdfb4a38a38ab3dc2fb2b3d40621d405f79a024OUT 0xf179893eb4fbd519178b4c514f3dc141b857ff870 GLMR0.007782614
0xf3ef402f2ddb12bb8e72b5e08d5cf932330a4449821259b727fa2ba237a7bdeb0x95938db919728392022-09-29 18:46:309 hrs 32 mins ago0x1bdfb4a38a38ab3dc2fb2b3d40621d405f79a024OUT 0xf179893eb4fbd519178b4c514f3dc141b857ff870 GLMR0.007896392
0x56adcdd9d04e846a80bf3ef3a061b3901c4f7f0740f9819a34ea6194b899d0040x95938db919726642022-09-29 18:10:3610 hrs 8 mins ago0x1bdfb4a38a38ab3dc2fb2b3d40621d405f79a024OUT 0xf179893eb4fbd519178b4c514f3dc141b857ff870 GLMR0.0335312355
[ Download CSV Export 
Latest 1 internal transaction
Parent Txn Hash Block From To Value
0xfaa39dbeaade8b5373b9a903562dd99e9249e5247f2b75ce1799a00eedb5fdee6158822022-03-16 13:10:24197 days 15 hrs ago Moonbeam: WGLMR Token0x1bdfb4a38a38ab3dc2fb2b3d40621d405f79a02436.357238307508015539 GLMR
[ Download CSV Export 
Loading

Contract Name:
0

Compiler Version
0

Optimization Enabled:
0

Other Settings:
-NA-
Block Transaction Gas Used Reward
Age Block Fee Address BC Fee Address Voting Power Jailed Incoming
Block Uncle Number Difficulty Gas Used Reward
Loading
Make sure to use the "Vote Down" button for any spammy posts, and the "Vote Up" for interesting conversations.